»·PEaware :: N7AZ KBUR-KPSP

N7AZ :: KBUR-KPSP

FLIGHT INFORMATION

Flight Status: Arrived
Operator: Privately registered:
United States
More flights under this callsign
Pilot: Alex K. (14822)
Aircraft: PIPER PA-23-150/160 APACHE
(PA23)
More flights by this aircraft type
Origin: KBUR Bob Hope-Burbank
United States
Destination: KPSP Palm Springs Intl
United States
More flights between these airports :: More routes between these airports
Route: +
File this flight plan on PilotEdge
Remarks: FF
Altitude:
(Current/Filed)
0ft
Speed:
(Current/Filed)
0kts
Departed: 09-Oct-17 09:02 AM
Arrived: 09-Oct-17 09:42 AM
Distance/Time
Traveled:
95nm/0:39
Distance/Time
To Go:
Arrived

Flight Plot

Page will automatically refresh every two minutes.


Map Options




Map Legend


Flown Route
Filed Route
Departure Airport
Arrival Airport
Navaid (VOR, NDB)
Fix

Horizontal Profiles

Position Reports

Time Latitude Longitude Heading Altitude Ground
Speed
09-Oct-17 09:03 34.199952 -118.363539 0 779ft 0kts
09-Oct-17 09:03 34.199952 -118.363539 0 779ft 0kts
09-Oct-17 09:04 34.199608 -118.364489 180 779ft 8kts
09-Oct-17 09:05 34.199124 -118.367831 271 779ft 14kts
09-Oct-17 09:07 34.197863 -118.364877 91 780ft 83kts
09-Oct-17 09:07 34.193200 -118.336130 110 1846ft 108kts
09-Oct-17 09:08 34.183815 -118.302958 110 3026ft 127kts
09-Oct-17 09:09 34.169226 -118.252652 110 2986ft 168kts
09-Oct-17 09:10 34.154840 -118.203208 110 4247ft 149kts
09-Oct-17 09:11 34.142102 -118.158108 100 5542ft 153kts
09-Oct-17 09:12 34.133441 -118.105073 100 5511ft 166kts
09-Oct-17 09:13 34.124501 -118.050491 101 5505ft 167kts
09-Oct-17 09:14 34.115269 -117.995442 100 5506ft 167kts
09-Oct-17 09:15 34.105884 -117.940253 100 5532ft 169kts
09-Oct-17 09:16 34.096422 -117.884094 101 5532ft 171kts
09-Oct-17 09:17 34.086739 -117.827555 101 5536ft 172kts
09-Oct-17 09:18 34.076862 -117.770279 99 5492ft 180kts
09-Oct-17 09:19 34.077967 -117.712867 73 5493ft 169kts
09-Oct-17 09:20 34.081561 -117.657450 81 5482ft 166kts
09-Oct-17 09:21 34.082269 -117.601549 97 5485ft 171kts
09-Oct-17 09:22 34.075342 -117.546183 95 5531ft 168kts
09-Oct-17 09:23 34.070388 -117.489861 95 5532ft 169kts
09-Oct-17 09:24 34.065451 -117.433673 95 5543ft 169kts
09-Oct-17 09:25 34.060495 -117.377115 95 5532ft 169kts
09-Oct-17 09:26 34.057513 -117.346763 100 5537ft 168kts
09-Oct-17 09:27 34.052015 -117.309075 100 5532ft 168kts
09-Oct-17 09:28 34.040509 -117.254430 106 5543ft 171kts
09-Oct-17 09:29 34.027810 -117.201148 106 5566ft 172kts
09-Oct-17 09:30 34.013242 -117.149732 106 5635ft 165kts
09-Oct-17 09:31 33.998763 -117.099197 106 5742ft 158kts
09-Oct-17 09:32 33.986460 -117.048724 106 5623ft 169kts
09-Oct-17 09:33 33.974584 -116.998817 105 5542ft 171kts
09-Oct-17 09:34 33.959082 -116.946582 106 5652ft 164kts
09-Oct-17 09:35 33.944144 -116.895937 105 5611ft 161kts
09-Oct-17 09:36 33.933651 -116.845377 97 5610ft 155kts
09-Oct-17 09:37 33.930352 -116.793669 90 5609ft 154kts
09-Oct-17 09:38 33.924479 -116.741457 92 5507ft 164kts
09-Oct-17 09:39 33.917557 -116.685959 90 5513ft 172kts
09-Oct-17 09:40 33.910657 -116.628406 92 5511ft 177kts
09-Oct-17 09:41 33.880254 -116.584746 146 3884ft 169kts
09-Oct-17 09:42 33.849625 -116.553338 140 2537ft 143kts
09-Oct-17 09:43 33.819014 -116.525702 141 1659ft 132kts
09-Oct-17 09:44 33.804858 -116.498091 52 1063ft 86kts
09-Oct-17 09:45 33.821144 -116.500085 326 549ft 71kts
09-Oct-17 09:46 33.827762 -116.507175 184 480ft 13kts
09-Oct-17 09:47 33.825542 -116.509559 281 480ft 15kts
09-Oct-17 09:48 33.825694 -116.509922 85 480ft 0kts
09-Oct-17 09:49 33.825694 -116.509922 85 480ft 0kts
09-Oct-17 09:50 33.825694 -116.509922 85 480ft 0kts
09-Oct-17 09:51 33.825694 -116.509922 85 480ft 0kts
09-Oct-17 09:52 33.825694 -116.509922 85 480ft 0kts
09-Oct-17 09:53 33.825694 -116.509922 85 480ft 0kts
09-Oct-17 09:54 33.825694 -116.509922 85 480ft 0kts
09-Oct-17 09:55 33.825694 -116.509922 85 480ft 0kts
09-Oct-17 09:56 33.825694 -116.509922 85 480ft 0kts

Navigation Log

Ident Type
1. KBUR Airport
2. KPSP Airport